createdAt,value
2019-05-02T00:01:48.929Z,89.40
2019-05-02T00:04:21.036Z,89.50
2019-05-02T00:07:07.324Z,89.50
2019-05-02T00:09:47.284Z,89.50
2019-05-02T00:12:16.084Z,89.40
2019-05-02T00:14:46.343Z,89.40
2019-05-02T00:17:20.202Z,89.60
2019-05-02T00:19:51.116Z,89.80
2019-05-02T00:22:21.489Z,89.70
2019-05-02T00:24:51.680Z,89.80
2019-05-02T00:27:21.950Z,89.90
2019-05-02T00:29:53.902Z,90.00
2019-05-02T00:32:24.046Z,90.00
2019-05-02T00:34:54.354Z,90.10
2019-05-02T00:37:26.608Z,90.10
2019-05-02T00:39:56.382Z,89.70
2019-05-02T00:42:26.562Z,90.30
2019-05-02T00:44:56.746Z,90.40
2019-05-02T00:47:36.018Z,90.40
2019-05-02T00:50:11.204Z,90.40
2019-05-02T00:52:40.685Z,90.60
2019-05-02T00:55:11.178Z,90.60
2019-05-02T00:57:41.290Z,90.50
2019-05-02T01:00:13.433Z,90.50
2019-05-02T01:02:49.545Z,90.40
2019-05-02T01:05:19.755Z,90.30
2019-05-02T01:07:49.920Z,90.40
2019-05-02T01:10:21.234Z,90.50
2019-05-02T01:12:52.003Z,90.50
2019-05-02T01:15:22.263Z,90.60
2019-05-02T01:17:52.367Z,90.70
2019-05-02T01:20:27.512Z,90.80
2019-05-02T01:22:54.465Z,90.80
2019-05-02T01:25:24.648Z,91.00
2019-05-02T01:28:18.849Z,91.10
2019-05-02T01:31:23.458Z,91.30
2019-05-02T01:34:13.132Z,91.30
2019-05-02T01:36:47.804Z,91.40
2019-05-02T01:39:17.912Z,91.50
2019-05-02T01:41:48.080Z,91.40
2019-05-02T01:44:18.273Z,91.40
2019-05-02T01:46:48.453Z,91.80
2019-05-02T01:49:21.841Z,91.80
2019-05-02T01:51:50.573Z,91.90
2019-05-02T01:54:20.699Z,91.80
2019-05-02T01:56:51.008Z,91.70
2019-05-02T01:59:21.120Z,91.90
2019-05-02T02:01:53.136Z,92.20
2019-05-02T02:04:23.206Z,91.90
2019-05-02T02:06:53.384Z,92.40
2019-05-02T02:09:23.591Z,92.20
2019-05-02T02:11:53.702Z,92.30
2019-05-02T02:14:23.898Z,92.70
2019-05-02T02:16:54.092Z,92.40
2019-05-02T02:19:29.686Z,92.40
2019-05-02T02:22:07.040Z,92.50
2019-05-02T02:24:41.607Z,92.40
2019-05-02T02:27:11.697Z,92.50
2019-05-02T02:29:43.930Z,92.70
2019-05-02T02:32:20.148Z,92.90
2019-05-02T02:34:45.607Z,92.80
2019-05-02T02:37:15.704Z,92.90
2019-05-02T02:39:48.432Z,93.50
2019-05-02T02:42:17.485Z,93.30
2019-05-02T02:44:53.736Z,93.10
2019-05-02T02:47:23.873Z,93.40
2019-05-02T02:49:55.685Z,93.20
2019-05-02T02:52:25.923Z,93.30
2019-05-02T02:54:56.090Z,93.20
2019-05-02T02:57:28.511Z,93.20
2019-05-02T03:00:06.123Z,93.60
2019-05-02T03:02:30.162Z,93.50
2019-05-02T03:05:00.251Z,93.40
2019-05-02T03:07:30.430Z,93.40
2019-05-02T03:10:05.963Z,93.50
2019-05-02T03:13:06.376Z,93.50
2019-05-02T03:15:41.308Z,93.70
2019-05-02T03:18:11.487Z,93.60
2019-05-02T03:20:42.181Z,93.60
2019-05-02T03:23:15.313Z,93.60
2019-05-02T03:25:50.517Z,93.60
2019-05-02T03:28:18.547Z,93.70
2019-05-02T03:30:48.721Z,93.60
2019-05-02T03:33:18.901Z,93.60
2019-05-02T03:35:49.530Z,93.70
2019-05-02T03:38:31.030Z,93.80
2019-05-02T03:40:51.665Z,93.70
2019-05-02T03:43:25.898Z,93.60
2019-05-02T03:45:54.505Z,93.70
2019-05-02T03:48:25.938Z,94.10
2019-05-02T03:50:56.798Z,93.90
2019-05-02T03:53:27.717Z,94.20
2019-05-02T03:55:58.661Z,93.90
2019-05-02T03:58:31.567Z,94.20
2019-05-02T04:01:03.917Z,94.20
2019-05-02T04:03:40.991Z,94.00
2019-05-02T04:06:06.277Z,94.20
2019-05-02T04:08:38.200Z,94.10
2019-05-02T04:11:37.854Z,94.10
2019-05-02T04:13:59.807Z,93.80
2019-05-02T04:16:30.897Z,94.50
2019-05-02T04:19:04.501Z,94.40
2019-05-02T04:21:36.312Z,94.50
2019-05-02T04:24:13.344Z,94.50
2019-05-02T04:26:52.626Z,94.50
2019-05-02T04:29:12.273Z,94.60
2019-05-02T04:31:42.543Z,94.30
2019-05-02T04:34:15.147Z,94.40
2019-05-02T04:36:46.822Z,94.50
2019-05-02T04:39:21.201Z,94.50
2019-05-02T04:41:48.838Z,94.40
2019-05-02T04:44:19.129Z,94.70
2019-05-02T04:46:49.346Z,94.40
2019-05-02T04:49:28.576Z,94.40
2019-05-02T04:52:04.503Z,94.50
2019-05-02T04:54:31.280Z,94.60
2019-05-02T04:56:55.760Z,94.60
2019-05-02T04:59:28.299Z,95.00
2019-05-02T05:02:01.330Z,94.60
2019-05-02T05:04:33.161Z,94.70
2019-05-02T05:07:01.829Z,94.70
2019-05-02T05:09:32.382Z,94.70
2019-05-02T05:12:02.826Z,94.80
2019-05-02T05:14:39.109Z,94.90
2019-05-02T05:17:04.973Z,95.00
2019-05-02T05:19:37.191Z,94.90
2019-05-02T05:22:11.610Z,94.90
2019-05-02T05:24:52.117Z,95.00
2019-05-02T05:27:22.995Z,95.00
2019-05-02T05:29:58.392Z,95.10
2019-05-02T05:32:25.150Z,95.10
2019-05-02T05:34:55.268Z,95.20
2019-05-02T05:37:27.286Z,95.10
2019-05-02T05:39:58.046Z,95.10
2019-05-02T05:42:30.172Z,95.00
2019-05-02T05:45:03.709Z,95.10
2019-05-02T05:47:31.991Z,95.50
2019-05-02T05:50:02.209Z,95.20
2019-05-02T05:52:33.199Z,95.10
2019-05-02T05:55:04.954Z,95.00
2019-05-02T05:57:35.304Z,95.00
2019-05-02T06:00:11.512Z,95.50
2019-05-02T06:02:52.701Z,95.10
2019-05-02T06:05:10.573Z,95.20
2019-05-02T06:07:43.955Z,95.30
2019-05-02T06:10:12.581Z,95.30
2019-05-02T06:12:42.837Z,95.10
2019-05-02T06:15:13.223Z,95.20
2019-05-02T06:17:43.400Z,95.10
2019-05-02T06:20:15.111Z,95.30
2019-05-02T06:22:45.287Z,95.30
2019-05-02T06:25:16.976Z,95.40
2019-05-02T06:27:47.077Z,95.30
2019-05-02T06:30:17.470Z,95.50
2019-05-02T06:32:49.928Z,95.20
2019-05-02T06:35:21.202Z,95.40
2019-05-02T06:37:52.118Z,95.20
2019-05-02T06:40:22.496Z,95.50
2019-05-02T06:42:52.524Z,95.60
2019-05-02T06:45:22.910Z,95.60
2019-05-02T06:47:53.114Z,95.50
2019-05-02T06:50:24.867Z,95.40
2019-05-02T06:52:55.077Z,95.40
2019-05-02T06:55:28.181Z,95.20
2019-05-02T06:58:02.967Z,94.50
2019-05-02T07:00:35.421Z,94.60
2019-05-02T07:03:04.910Z,94.90
2019-05-02T07:05:33.009Z,94.80
2019-05-02T07:08:06.658Z,94.80
2019-05-02T07:10:44.327Z,94.60
2019-05-02T07:13:10.852Z,94.40
2019-05-02T07:15:55.398Z,94.60
2019-05-02T07:18:27.956Z,94.40
2019-05-02T07:20:58.172Z,94.40
2019-05-02T07:23:28.381Z,94.40
2019-05-02T07:26:00.348Z,94.30
2019-05-02T07:28:30.493Z,94.50
2019-05-02T07:31:00.819Z,94.60
2019-05-02T07:33:32.186Z,94.40
2019-05-02T07:36:02.939Z,94.30
2019-05-02T07:38:33.181Z,94.50
2019-05-02T07:41:03.448Z,94.20
2019-05-02T07:43:33.620Z,94.30
2019-05-02T07:46:03.950Z,94.20
2019-05-02T07:48:34.154Z,94.30
2019-05-02T07:51:04.422Z,94.30
2019-05-02T07:53:34.708Z,94.40
2019-05-02T07:56:04.935Z,94.10
2019-05-02T07:58:38.426Z,93.80
2019-05-02T08:01:08.041Z,93.80
2019-05-02T08:03:39.125Z,94.00
2019-05-02T08:06:09.334Z,93.80
2019-05-02T08:08:39.549Z,93.50
2019-05-02T08:11:09.753Z,93.40
2019-05-02T08:13:39.869Z,93.20
2019-05-02T08:16:10.080Z,93.00
2019-05-02T08:18:40.176Z,92.50
2019-05-02T08:21:10.401Z,92.50
2019-05-02T08:23:40.590Z,92.40
2019-05-02T08:26:10.726Z,92.20
2019-05-02T08:28:47.001Z,92.10
2019-05-02T08:31:20.794Z,91.90
2019-05-02T08:33:50.241Z,91.80
2019-05-02T08:36:20.467Z,91.70
2019-05-02T08:38:53.706Z,91.70
2019-05-02T08:41:22.538Z,91.60
2019-05-02T08:43:52.722Z,91.30
2019-05-02T08:46:22.920Z,91.00
2019-05-02T08:48:53.137Z,90.80
2019-05-02T08:51:23.292Z,90.80
2019-05-02T08:53:56.874Z,90.80
2019-05-02T08:56:25.407Z,90.60
2019-05-02T08:58:55.542Z,90.70
2019-05-02T09:01:35.015Z,90.50
2019-05-02T09:03:57.513Z,90.60
2019-05-02T09:06:27.892Z,90.40
2019-05-02T09:08:58.016Z,89.80
2019-05-02T09:11:28.202Z,88.90
2019-05-02T09:13:58.311Z,88.80
2019-05-02T09:16:30.429Z,88.60
2019-05-02T09:19:00.361Z,88.70
2019-05-02T09:21:35.965Z,88.70
2019-05-02T09:24:08.568Z,88.70
2019-05-02T09:26:38.730Z,88.90
2019-05-02T09:29:08.389Z,88.40
2019-05-02T09:31:42.252Z,88.10
2019-05-02T09:34:11.734Z,87.60
2019-05-02T09:36:41.980Z,87.30
2019-05-02T09:39:12.022Z,87.10
2019-05-02T09:41:42.212Z,87.40
2019-05-02T09:44:14.544Z,87.80
2019-05-02T09:46:47.526Z,87.80
2019-05-02T09:49:16.637Z,87.70
2019-05-02T09:51:50.490Z,87.10
2019-05-02T09:54:18.686Z,87.20
2019-05-02T09:56:48.886Z,87.00
2019-05-02T09:59:27.751Z,87.10
2019-05-02T10:01:52.816Z,87.20
2019-05-02T10:04:23.011Z,86.60
2019-05-02T10:06:53.121Z,85.90
2019-05-02T10:09:27.129Z,85.30
2019-05-02T10:11:55.413Z,85.40
2019-05-02T10:14:25.664Z,84.70
2019-05-02T10:16:57.598Z,84.20
2019-05-02T10:19:27.704Z,84.20
2019-05-02T10:21:57.854Z,84.10
2019-05-02T10:24:28.051Z,83.70
2019-05-02T10:27:04.313Z,83.20
2019-05-02T10:29:32.697Z,82.80
2019-05-02T10:32:02.057Z,82.20
2019-05-02T10:34:32.955Z,81.80
2019-05-02T10:37:03.330Z,81.60
2019-05-02T10:39:37.730Z,81.00
2019-05-02T10:42:05.427Z,80.70
2019-05-02T10:44:36.675Z,80.30
2019-05-02T10:47:06.995Z,80.00
2019-05-02T10:49:49.360Z,80.40
2019-05-02T10:52:21.560Z,79.90
2019-05-02T10:54:52.811Z,79.50
2019-05-02T10:57:23.146Z,78.80
2019-05-02T10:59:56.051Z,78.40
2019-05-02T11:02:53.390Z,77.60
2019-05-02T11:05:26.592Z,76.60
2019-05-02T11:08:01.481Z,76.70
2019-05-02T11:10:28.787Z,76.70
2019-05-02T11:13:07.326Z,76.20
2019-05-02T11:16:12.480Z,75.80
2019-05-02T11:19:02.400Z,76.20
2019-05-02T11:21:38.627Z,75.10
2019-05-02T11:24:18.285Z,74.60
2019-05-02T11:26:45.808Z,72.70
2019-05-02T11:29:16.009Z,73.20
2019-05-02T11:31:46.193Z,73.70
2019-05-02T11:34:16.381Z,74.10
2019-05-02T11:36:46.563Z,73.60
2019-05-02T11:39:25.366Z,72.90
2019-05-02T11:41:48.796Z,71.30
2019-05-02T11:44:19.646Z,71.10
2019-05-02T11:46:49.845Z,70.90
2019-05-02T11:49:20.161Z,70.10
2019-05-02T11:51:52.613Z,71.10
2019-05-02T11:54:22.744Z,71.40
2019-05-02T11:56:53.607Z,69.80
2019-05-02T11:59:28.232Z,69.70
2019-05-02T12:02:09.354Z,69.30
2019-05-02T12:04:38.209Z,68.90
2019-05-02T12:07:08.432Z,68.50
2019-05-02T12:09:38.598Z,68.70
2019-05-02T12:12:08.897Z,67.20
2019-05-02T12:14:39.086Z,68.00
2019-05-02T12:17:09.207Z,68.30
2019-05-02T12:19:39.319Z,69.00
2019-05-02T12:22:12.778Z,69.10
2019-05-02T12:24:45.277Z,68.90
2019-05-02T12:27:13.275Z,69.50
2019-05-02T12:29:43.563Z,68.80
2019-05-02T12:32:15.591Z,68.30
2019-05-02T12:34:45.577Z,67.80
2019-05-02T12:37:15.761Z,68.70
2019-05-02T12:39:45.958Z,68.60
2019-05-02T12:42:16.598Z,67.30
2019-05-02T12:44:46.973Z,67.30
2019-05-02T12:47:17.202Z,66.50
2019-05-02T12:49:47.390Z,66.90
2019-05-02T12:52:17.724Z,66.30
2019-05-02T12:54:47.897Z,66.40
2019-05-02T12:57:18.119Z,65.70
2019-05-02T12:59:48.250Z,65.30
2019-05-02T13:02:27.128Z,64.90
2019-05-02T13:04:57.326Z,64.60
2019-05-02T13:07:27.559Z,64.90
2019-05-02T13:09:57.620Z,63.90
2019-05-02T13:12:32.301Z,64.80
2019-05-02T13:15:02.717Z,64.30
2019-05-02T13:17:37.181Z,64.60
2019-05-02T13:20:07.343Z,64.80
2019-05-02T13:23:03.418Z,64.80
2019-05-02T13:25:36.919Z,63.70
2019-05-02T13:28:05.598Z,63.10
2019-05-02T13:30:46.782Z,63.20
2019-05-02T13:33:27.237Z,63.60
2019-05-02T13:35:58.255Z,63.80
2019-05-02T13:38:28.633Z,63.20
2019-05-02T13:40:58.823Z,62.90
2019-05-02T13:43:34.345Z,62.10
2019-05-02T13:46:18.121Z,61.50
2019-05-02T13:48:48.343Z,61.00
2019-05-02T13:51:18.602Z,60.90
2019-05-02T13:53:56.228Z,60.80
2019-05-02T13:56:45.456Z,60.20
2019-05-02T13:59:16.021Z,60.60
2019-05-02T14:01:48.081Z,60.70
2019-05-02T14:04:18.502Z,60.70
2019-05-02T14:06:48.881Z,59.70
2019-05-02T14:09:34.879Z,60.80
2019-05-02T14:12:19.016Z,61.50
2019-05-02T14:14:49.183Z,62.40
2019-05-02T14:17:19.432Z,63.30
2019-05-02T14:19:49.638Z,64.20
2019-05-02T14:22:19.828Z,65.40
2019-05-02T14:24:51.913Z,66.90
2019-05-02T14:27:22.429Z,67.50
2019-05-02T14:29:52.645Z,68.30
2019-05-02T14:32:26.305Z,69.50
2019-05-02T14:35:03.651Z,71.30
2019-05-02T14:37:33.760Z,72.50
2019-05-02T14:40:11.683Z,73.50
2019-05-02T14:42:41.976Z,74.10
2019-05-02T14:45:27.148Z,75.50
2019-05-02T14:47:44.197Z,76.30
2019-05-02T14:50:23.523Z,77.30
2019-05-02T14:52:46.775Z,77.70
2019-05-02T14:55:23.997Z,77.80
2019-05-02T14:57:49.355Z,78.50
2019-05-02T15:00:22.192Z,78.80
2019-05-02T15:02:52.393Z,79.10
2019-05-02T15:05:27.927Z,80.60
2019-05-02T15:07:56.751Z,81.00
2019-05-02T15:10:26.575Z,84.00
2019-05-02T15:12:59.518Z,86.10
2019-05-02T15:15:33.604Z,86.50
2019-05-02T15:18:02.723Z,85.70
2019-05-02T15:20:38.927Z,86.00
2019-05-02T15:23:07.305Z,87.00
2019-05-02T15:25:37.740Z,86.60
2019-05-02T15:28:12.923Z,88.30
2019-05-02T15:30:49.303Z,88.50
2019-05-02T15:33:17.256Z,88.40
2019-05-02T15:36:03.170Z,88.40
2019-05-02T15:38:32.395Z,89.40
2019-05-02T15:41:07.031Z,89.50
2019-05-02T15:43:34.618Z,89.40
2019-05-02T15:46:05.198Z,90.70
2019-05-02T15:48:35.493Z,90.70
2019-05-02T15:51:08.961Z,90.80
2019-05-02T15:54:05.327Z,91.20
2019-05-02T15:56:27.525Z,91.40
2019-05-02T15:59:02.034Z,91.00
2019-05-02T16:01:53.736Z,91.00
2019-05-02T16:04:27.358Z,90.90
2019-05-02T16:07:00.480Z,90.70
2019-05-02T16:09:29.470Z,91.00
2019-05-02T16:11:59.683Z,91.00
2019-05-02T16:14:34.125Z,91.10
2019-05-02T16:17:03.830Z,91.00
2019-05-02T16:19:37.991Z,91.60
2019-05-02T16:22:18.869Z,91.40
2019-05-02T16:24:51.051Z,91.20
2019-05-02T16:27:42.097Z,91.20
2019-05-02T16:30:13.369Z,91.50
2019-05-02T16:32:52.280Z,91.70
2019-05-02T16:35:23.462Z,91.70
2019-05-02T16:37:56.147Z,91.90
2019-05-02T16:40:34.330Z,91.80
2019-05-02T16:42:59.301Z,91.70
2019-05-02T16:45:29.608Z,91.90
2019-05-02T16:48:00.631Z,91.90
2019-05-02T16:50:33.010Z,91.90
2019-05-02T16:53:03.609Z,92.10
2019-05-02T16:55:33.876Z,92.10
2019-05-02T16:58:07.046Z,92.20
2019-05-02T17:00:36.886Z,92.40
2019-05-02T17:03:08.226Z,92.30
2019-05-02T17:05:39.319Z,92.30
2019-05-02T17:08:22.430Z,92.30
2019-05-02T17:11:17.444Z,92.10
2019-05-02T17:13:47.639Z,92.20
2019-05-02T17:16:17.932Z,92.40
2019-05-02T17:18:52.014Z,92.20
2019-05-02T17:21:22.061Z,92.40
2019-05-02T17:23:52.397Z,92.40
2019-05-02T17:26:22.882Z,92.60
2019-05-02T17:28:53.240Z,92.80
2019-05-02T17:31:23.619Z,93.00
2019-05-02T17:33:55.012Z,93.00
2019-05-02T17:36:28.636Z,93.10
2019-05-02T17:38:59.459Z,92.90
2019-05-02T17:41:29.160Z,93.10
2019-05-02T17:43:59.343Z,93.10
2019-05-02T17:46:29.406Z,92.90
2019-05-02T17:48:59.636Z,93.00
2019-05-02T17:51:38.337Z,92.80
2019-05-02T17:54:09.749Z,92.90
2019-05-02T17:56:41.624Z,92.90
2019-05-02T17:59:11.884Z,92.90
2019-05-02T18:01:42.218Z,93.00
2019-05-02T18:04:16.305Z,93.10
2019-05-02T18:06:46.951Z,93.10
2019-05-02T18:09:21.673Z,93.20
2019-05-02T18:11:51.911Z,93.20
2019-05-02T18:14:24.073Z,93.60
2019-05-02T18:16:55.583Z,93.10
2019-05-02T18:19:26.086Z,93.10
2019-05-02T18:21:58.141Z,93.20
2019-05-02T18:24:28.138Z,93.20
2019-05-02T18:26:58.412Z,93.20
2019-05-02T18:29:28.594Z,93.30
2019-05-02T18:31:58.817Z,93.40
2019-05-02T18:34:28.947Z,93.40
2019-05-02T18:37:02.949Z,93.40
2019-05-02T18:39:34.808Z,93.40
2019-05-02T18:42:03.402Z,93.60
2019-05-02T18:44:33.594Z,93.60
2019-05-02T18:47:03.829Z,93.60
2019-05-02T18:49:34.124Z,93.60
2019-05-02T18:52:04.413Z,93.60
2019-05-02T18:54:38.677Z,93.90
2019-05-02T18:57:07.170Z,93.80
2019-05-02T18:59:37.562Z,93.80
2019-05-02T19:02:07.851Z,93.80
2019-05-02T19:04:39.842Z,93.90
2019-05-02T19:07:12.764Z,94.00
2019-05-02T19:09:50.841Z,94.20
2019-05-02T19:12:22.464Z,94.20
2019-05-02T19:14:46.121Z,94.30
2019-05-02T19:17:16.355Z,94.40
2019-05-02T19:19:46.577Z,94.20
2019-05-02T19:22:17.145Z,94.50
2019-05-02T19:24:47.357Z,94.40
2019-05-02T19:27:38.578Z,94.40
2019-05-02T19:30:09.891Z,94.40
2019-05-02T19:32:41.723Z,94.20
2019-05-02T19:35:12.098Z,94.90
2019-05-02T19:37:44.612Z,94.50
2019-05-02T19:40:20.019Z,94.50
2019-05-02T19:42:49.894Z,94.90
2019-05-02T19:45:21.814Z,95.50
2019-05-02T19:47:54.247Z,95.80
2019-05-02T19:50:44.084Z,95.60
2019-05-02T19:53:18.142Z,95.20
2019-05-02T19:55:46.360Z,95.00
2019-05-02T19:58:16.583Z,94.80
2019-05-02T20:00:46.949Z,94.60
2019-05-02T20:03:21.674Z,94.60
2019-05-02T20:05:49.332Z,94.60
2019-05-02T20:08:22.831Z,94.60
2019-05-02T20:10:56.755Z,94.50
2019-05-02T20:13:28.049Z,94.40
2019-05-02T20:16:16.955Z,94.20
2019-05-02T20:18:47.433Z,94.30
2019-05-02T20:21:27.375Z,94.30
2019-05-02T20:23:54.810Z,94.50
2019-05-02T20:26:25.046Z,94.20
2019-05-02T20:28:55.301Z,94.00
2019-05-02T20:31:25.573Z,93.90
2019-05-02T20:33:55.821Z,94.30
2019-05-02T20:36:26.022Z,93.70
2019-05-02T20:38:56.214Z,93.60
2019-05-02T20:41:26.457Z,93.30
2019-05-02T20:43:56.561Z,93.10
2019-05-02T20:46:26.747Z,92.90
2019-05-02T20:48:56.947Z,92.70
2019-05-02T20:51:27.155Z,92.60
2019-05-02T20:53:57.343Z,92.80
2019-05-02T20:56:27.542Z,92.30
2019-05-02T20:58:57.669Z,92.20
2019-05-02T21:01:27.882Z,92.00
2019-05-02T21:03:58.055Z,92.00
2019-05-02T21:06:41.349Z,91.90
2019-05-02T21:09:36.985Z,91.90
2019-05-02T21:12:07.849Z,91.90
2019-05-02T21:14:38.058Z,91.90
2019-05-02T21:17:08.268Z,91.90
2019-05-02T21:19:38.440Z,92.00
2019-05-02T21:22:17.895Z,91.90
2019-05-02T21:24:48.087Z,91.90
2019-05-02T21:27:18.265Z,91.90
2019-05-02T21:29:48.347Z,92.00
2019-05-02T21:32:18.620Z,92.00
2019-05-02T21:34:48.795Z,92.00
2019-05-02T21:37:18.979Z,92.20
2019-05-02T21:39:49.216Z,92.20
2019-05-02T21:42:19.414Z,92.30
2019-05-02T21:44:51.629Z,92.50
2019-05-02T21:47:22.480Z,92.60
2019-05-02T21:50:12.322Z,92.60
2019-05-02T21:52:52.560Z,92.70
2019-05-02T21:55:38.861Z,92.80
2019-05-02T21:58:09.065Z,92.90
2019-05-02T22:01:02.167Z,93.20
2019-05-02T22:03:32.503Z,93.20
2019-05-02T22:06:02.705Z,93.30
2019-05-02T22:08:32.896Z,93.60
2019-05-02T22:11:03.124Z,93.80
2019-05-02T22:13:33.318Z,94.00
2019-05-02T22:16:03.503Z,94.00
2019-05-02T22:18:33.790Z,94.00
2019-05-02T22:21:03.969Z,94.00
2019-05-02T22:23:34.239Z,94.20
2019-05-02T22:26:04.380Z,94.40
2019-05-02T22:28:34.570Z,94.00
2019-05-02T22:31:04.771Z,94.10
2019-05-02T22:33:34.942Z,94.50
2019-05-02T22:36:05.148Z,94.50
2019-05-02T22:38:50.135Z,94.10
2019-05-02T22:41:22.127Z,93.90
2019-05-02T22:43:52.560Z,94.10
2019-05-02T22:46:44.541Z,93.90
2019-05-02T22:49:15.388Z,94.10
2019-05-02T22:51:45.844Z,94.40
2019-05-02T22:54:26.687Z,94.10
2019-05-02T22:56:47.939Z,93.60
2019-05-02T22:59:18.150Z,93.70
2019-05-02T23:01:48.337Z,93.90
2019-05-02T23:04:18.531Z,93.40
2019-05-02T23:06:48.732Z,93.70
2019-05-02T23:09:19.116Z,93.70
2019-05-02T23:11:49.295Z,93.60
2019-05-02T23:14:21.867Z,93.40
2019-05-02T23:16:52.818Z,93.20
2019-05-02T23:19:23.305Z,93.40
2019-05-02T23:21:53.470Z,93.40
2019-05-02T23:24:38.727Z,93.40
2019-05-02T23:27:31.765Z,93.40
2019-05-02T23:30:02.891Z,93.50
2019-05-02T23:32:33.170Z,93.50
2019-05-02T23:35:03.441Z,93.50
2019-05-02T23:37:33.628Z,93.50
2019-05-02T23:40:03.896Z,93.40
2019-05-02T23:42:34.236Z,93.50
2019-05-02T23:45:04.760Z,93.10
2019-05-02T23:47:34.946Z,93.10
2019-05-02T23:50:05.476Z,93.20
2019-05-02T23:52:35.651Z,93.30
2019-05-02T23:55:06.591Z,93.00
2019-05-02T23:57:36.796Z,93.00
